LGKF

Kefalonia International Airport

Airport
ICAO code
LGKF
IATA Code
EFL
Summary
ICAO Region
EUR
ICAO Territory
Location

Svoronata, Kefalonia

Serving
Kefalonia
Elevation
59 ft
Coordinates
38° 7' 16" N , 20° 30' 20" E
KCC
Metar
LGKF 041050Z 13016KT 9999 FEW018 17/12 Q1011

Kefalonia Airport "Anna Pollatou" is an airport on the island of Kefalonia, in Greece.

Climatology

Warm mediterranean climate (Köppen climate classification Csa)

Runways

Designator Length Width Surface Rops
14/32 2436 45 ASP Yes/Yes

Airport map

Aerial View

SKYbrary Partners:

Safety knowledge contributed by: